Brunswick, GA (31523)

11:00 AM EST on November 22, 2014 (GMT -0500)
Dixville | Change Station
CLOSE
Current Station
Personal Weather Station
Location: Brunswick, GA
Elevation: 0 ft
Nearby Weather Stations
Active Advisory: Coastal Hazard Statement

Elev 0 ft 31.14 °N, 81.49 °W | Updated 5 seconds ago

Overcast
Overcast
65.6 °F
Feels Like 65.6 °F
N
6.0
Wind Variable Wind from NNE
Gusts 12.0 mph

Today
High -- | Low -- °F
--% Chance of Precip.
Yesterday
High -- | Low -- °F
Precip. -- in
6:59 AM 5:24 PM
New Moon, 0% visible
Pressure 30.38 in
Visibility 10.0 miles
Clouds Overcast 4200 ft
Dew Point 58 °F
Humidity 76%
Rainfall 0.00 in
Snow Depth Not available.
UV 2.0 out of 12
Pollen 2.30 out of 12
Air Quality Not available.
Flu Activity Not available.
METAR KSSI 221553Z AUTO 06013KT 10SM OVC042 18/13 A3038 RMK AO2 SLP288 T01780128

More Conditions Fewer Conditions

Pressure 30.38 in
Visibility 10.0 miles
Clouds Overcast 4200 ft
Dew Point 58 °F
Humidity 76%
Rainfall 0.00 in
Snow Depth Not available.
UV 2.0 out of 12
Pollen 2.30 out of 12
Air Quality Not available.
Flu Activity Not available.
METAR KSSI 221553Z AUTO 06013KT 10SM OVC042 18/13 A3038 RMK AO2 SLP288 T01780128

More Conditions Fewer Conditions

10-Day Weather Forecast

Almanac

Astronomy

Nov. 22, 2014 Rise Set
Actual Time
Civil Twilight
Nautical Twilight
Astronomical Twilight
Moon
Length of Visible Light
Length of Day
Tomorrow will be .
, % of the Moon is Illuminated

Today's Extremes

State Highs State Lows

Community

WunderPhotos

Upload Photos

1,772,841 photos uploaded!

WunderBlogs® & News

Nearby

Air Quality

  Air Quality AQ Index Pollutant
Not available.

Snow Depth

Station Depth Elevation

Earthquake Activity

City Distance Mag. Time & Date
Minimum magnitude displayed is 2.5.

Coastal Water Temperatures

Place Temperature

Nearby Weather Stations